createdAt,value
2022-12-26T00:02:22.375Z,1.54
2022-12-26T00:07:26.497Z,1.45
2022-12-26T00:12:31.966Z,1.57
2022-12-26T00:17:35.951Z,1.35
2022-12-26T00:22:40.093Z,1.20
2022-12-26T00:27:45.421Z,1.02
2022-12-26T00:32:49.456Z,0.84
2022-12-26T00:37:53.363Z,0.85
2022-12-26T00:42:58.698Z,0.73
2022-12-26T00:48:02.763Z,0.60
2022-12-26T00:53:06.702Z,0.50
2022-12-26T00:58:12.037Z,0.37
2022-12-26T01:03:16.941Z,0.41
2022-12-26T01:08:24.992Z,0.45
2022-12-26T01:13:30.450Z,0.66
2022-12-26T01:18:34.963Z,0.44
2022-12-26T01:23:38.868Z,0.66
2022-12-26T01:28:44.194Z,0.50
2022-12-26T01:33:48.140Z,0.62
2022-12-26T01:38:52.072Z,0.62
2022-12-26T01:44:00.376Z,0.57
2022-12-26T01:49:10.442Z,0.45
2022-12-26T01:54:41.457Z,0.62
2022-12-26T01:59:43.137Z,0.77
2022-12-26T02:05:08.212Z,0.85
2022-12-26T02:10:18.916Z,0.74
2022-12-26T02:15:24.438Z,0.22
2022-12-26T02:20:33.081Z,0.35
2022-12-26T02:26:21.746Z,0.18
2022-12-26T02:31:35.828Z,0.17
2022-12-26T02:36:56.708Z,0.01
2022-12-26T02:42:07.809Z,-0.04
2022-12-26T02:47:23.723Z,-0.11
2022-12-26T02:52:54.800Z,-0.16
2022-12-26T02:58:20.807Z,0.23
2022-12-26T03:03:49.287Z,0.20
2022-12-26T03:09:15.434Z,0.27
2022-12-26T03:14:24.816Z,0.20
2022-12-26T03:19:33.547Z,0.48
2022-12-26T03:25:02.322Z,0.56
2022-12-26T03:30:25.019Z,0.23
2022-12-26T03:35:34.800Z,0.47
2022-12-26T03:41:09.625Z,0.37
2022-12-26T03:46:37.503Z,0.44
2022-12-26T03:52:21.105Z,0.72
2022-12-26T03:58:01.122Z,0.15
2022-12-26T04:03:27.528Z,-0.23
2022-12-26T04:09:09.420Z,-0.32
2022-12-26T04:14:37.096Z,-0.22
2022-12-26T04:20:03.621Z,-0.32
2022-12-26T04:25:50.882Z,-0.53
2022-12-26T04:31:19.033Z,-0.54
2022-12-26T04:36:47.786Z,-0.43
2022-12-26T04:42:11.817Z,-0.28
2022-12-26T04:47:17.607Z,-0.33
2022-12-26T04:52:21.530Z,-0.26
2022-12-26T04:57:26.808Z,0.21
2022-12-26T05:02:49.243Z,0.33
2022-12-26T05:08:10.368Z,0.74
2022-12-26T05:13:15.777Z,1.00
2022-12-26T05:18:37.311Z,0.82
2022-12-26T05:23:58.931Z,0.33
2022-12-26T05:29:04.626Z,-0.08
2022-12-26T05:34:10.686Z,-0.04
2022-12-26T05:39:15.052Z,-0.29
2022-12-26T05:44:20.872Z,0.19
2022-12-26T05:49:24.871Z,0.12
2022-12-26T05:54:28.922Z,0.30
2022-12-26T05:59:34.544Z,0.35
2022-12-26T06:04:38.840Z,0.22
2022-12-26T06:09:42.992Z,-0.01
2022-12-26T06:14:48.618Z,0.10
2022-12-26T06:19:52.884Z,0.05
2022-12-26T06:24:57.012Z,0.57
2022-12-26T06:30:02.697Z,0.68
2022-12-26T06:35:07.652Z,0.88
2022-12-26T06:40:13.522Z,1.34
2022-12-26T06:45:19.173Z,1.83
2022-12-26T06:50:25.178Z,2.15
2022-12-26T06:55:29.146Z,2.41
2022-12-26T07:00:34.646Z,2.52
2022-12-26T07:05:39.404Z,2.78
2022-12-26T07:10:43.411Z,3.27
2022-12-26T07:15:49.024Z,4.03
2022-12-26T07:20:53.604Z,3.97
2022-12-26T07:25:57.882Z,4.42
2022-12-26T07:31:03.758Z,4.32
2022-12-26T07:36:08.952Z,4.66
2022-12-26T07:41:33.092Z,4.66
2022-12-26T07:46:39.162Z,5.22
2022-12-26T07:51:44.316Z,5.25
2022-12-26T07:56:48.362Z,5.49
2022-12-26T08:01:54.077Z,6.35
2022-12-26T08:06:58.999Z,6.37
2022-12-26T08:12:02.953Z,7.48
2022-12-26T08:17:08.835Z,7.77
2022-12-26T08:22:12.855Z,7.99
2022-12-26T08:27:16.916Z,8.67
2022-12-26T08:32:22.258Z,8.65
2022-12-26T08:37:26.207Z,9.05
2022-12-26T08:42:30.158Z,9.46
2022-12-26T08:47:35.597Z,9.31
2022-12-26T08:52:39.684Z,9.15
2022-12-26T08:57:44.890Z,9.58
2022-12-26T09:02:50.921Z,9.93
2022-12-26T09:07:54.935Z,10.20
2022-12-26T09:12:59.020Z,10.67
2022-12-26T09:18:06.317Z,10.76
2022-12-26T09:23:11.030Z,10.97
2022-12-26T09:28:17.070Z,10.96
2022-12-26T09:33:22.468Z,11.31
2022-12-26T09:38:26.995Z,11.09
2022-12-26T09:43:50.274Z,11.77
2022-12-26T09:49:02.393Z,11.95
2022-12-26T09:54:09.471Z,11.75
2022-12-26T09:59:18.936Z,12.14
2022-12-26T10:04:29.637Z,12.66
2022-12-26T10:09:59.655Z,12.94
2022-12-26T10:15:14.607Z,13.03
2022-12-26T10:20:27.494Z,12.80
2022-12-26T10:25:43.128Z,13.90
2022-12-26T10:30:48.755Z,14.28
2022-12-26T10:35:54.652Z,13.80
2022-12-26T10:41:05.941Z,13.85
2022-12-26T10:46:40.360Z,13.53
2022-12-26T10:51:46.275Z,13.97
2022-12-26T10:56:52.313Z,14.43
2022-12-26T11:01:57.973Z,14.48
2022-12-26T11:07:10.122Z,14.72
2022-12-26T11:12:22.110Z,14.95
2022-12-26T11:17:28.916Z,14.84
2022-12-26T11:22:34.260Z,14.15
2022-12-26T11:27:42.256Z,14.72
2022-12-26T11:32:49.421Z,15.05
2022-12-26T18:20:18.336Z,2.70
2022-12-26T18:25:25.437Z,2.78
2022-12-26T18:30:29.486Z,2.62
2022-12-26T18:35:37.426Z,2.56
2022-12-26T18:40:44.465Z,2.36
2022-12-26T18:45:48.544Z,2.46
2022-12-26T18:50:55.077Z,2.44
2022-12-26T18:56:01.109Z,2.34
2022-12-26T19:01:06.109Z,2.26
2022-12-26T19:06:17.419Z,2.10
2022-12-26T19:11:21.537Z,2.15
2022-12-26T19:16:25.583Z,2.19
2022-12-26T19:21:30.938Z,2.15
2022-12-26T19:26:34.861Z,2.19
2022-12-26T19:31:38.866Z,2.22
2022-12-26T19:36:44.696Z,2.37
2022-12-26T19:41:48.837Z,2.81
2022-12-26T19:47:11.934Z,2.31
2022-12-26T19:52:18.273Z,2.15
2022-12-26T19:57:23.598Z,2.27
2022-12-26T20:02:27.739Z,1.97
2022-12-26T20:07:33.172Z,1.73
2022-12-26T20:12:37.107Z,1.94
2022-12-26T20:17:41.035Z,1.59
2022-12-26T20:22:52.858Z,1.54
2022-12-26T20:27:57.195Z,1.90
2022-12-26T20:33:02.288Z,2.09
2022-12-26T20:38:07.671Z,2.41
2022-12-26T20:43:11.618Z,2.44
2022-12-26T20:48:15.521Z,2.12
2022-12-26T20:53:20.820Z,1.89
2022-12-26T20:58:25.710Z,1.71
2022-12-26T21:03:30.496Z,1.67
2022-12-26T21:08:36.669Z,1.76
2022-12-26T21:13:43.407Z,1.65
2022-12-26T21:18:47.825Z,1.71
2022-12-26T21:23:56.886Z,1.35
2022-12-26T21:29:02.273Z,1.26
2022-12-26T21:34:06.997Z,1.28
2022-12-26T21:39:12.356Z,1.41
2022-12-26T21:44:16.207Z,1.42
2022-12-26T21:49:20.145Z,1.33
2022-12-26T21:54:48.726Z,1.52
2022-12-26T21:59:59.953Z,1.29
2022-12-26T22:05:04.294Z,1.48
2022-12-26T22:10:31.595Z,1.35
2022-12-26T22:15:52.836Z,1.26
2022-12-26T22:20:57.968Z,1.31
2022-12-26T22:26:03.461Z,1.17
2022-12-26T22:31:08.221Z,1.21
2022-12-26T22:36:12.307Z,1.36
2022-12-26T22:41:17.809Z,0.95
2022-12-26T22:46:21.892Z,1.22
2022-12-26T22:51:27.359Z,1.53
2022-12-26T22:56:34.596Z,1.19
2022-12-26T23:01:38.657Z,1.57
2022-12-26T23:06:43.297Z,1.41
2022-12-26T23:12:11.425Z,0.89
2022-12-26T23:17:39.253Z,1.12
2022-12-26T23:22:43.719Z,0.94
2022-12-26T23:28:06.976Z,0.65
2022-12-26T23:33:10.956Z,0.56
2022-12-26T23:38:15.007Z,0.40
2022-12-26T23:43:20.394Z,0.22
2022-12-26T23:48:24.363Z,0.26
2022-12-26T23:53:28.228Z,0.30
2022-12-26T23:58:37.357Z,0.35
